Time;durP1;ratioP1;P1;durP2;ratioP2;P2;SDS_P1;SDS_P2;PMS_P1;PMS_P2;Temp;Humidity;BMP_temperature;BMP_pressure;BME280_temperature;BME280_humidity;BME280_pressure;Samples;Min_cycle;Max_cycle;Signal;HPM_P1;HPM_P2
2023/01/06 00:00:24;;;;;;;1.80;0.60;;;10.50;99.90;;;;;;5057819;28;20266;-49
2023/01/06 00:02:50;;;;;;;2.50;0.93;;;10.60;99.90;;;;;;5057525;28;20623;-50
2023/01/06 00:05:15;;;;;;;1.80;0.80;;;10.60;99.90;;;;;;5057694;28;20547;-49
2023/01/06 00:07:42;;;;;;;1.17;0.80;;;10.60;99.90;;;;;;5057675;28;20231;-48
2023/01/06 00:10:09;;;;;;;2.33;0.80;;;10.70;99.90;;;;;;5057924;28;20187;-50
2023/01/06 00:12:35;;;;;;;2.30;0.80;;;10.70;99.90;;;;;;5057878;28;20648;-50
2023/01/06 00:15:00;;;;;;;2.37;0.87;;;10.70;99.90;;;;;;5057490;28;20326;-47
2023/01/06 00:17:26;;;;;;;4.47;1.00;;;10.70;99.90;;;;;;5057073;28;20663;-49
2023/01/06 00:19:51;;;;;;;3.93;1.20;;;10.70;99.90;;;;;;5041656;28;20202;-47
2023/01/06 00:22:17;;;;;;;3.57;0.80;;;10.80;99.90;;;;;;5060743;28;20327;-48
2023/01/06 00:24:43;;;;;;;4.00;0.90;;;10.70;99.90;;;;;;5042817;28;20275;-49
2023/01/06 00:27:08;;;;;;;2.17;0.80;;;10.60;99.90;;;;;;5061041;28;20187;-49
2023/01/06 00:29:34;;;;;;;1.20;0.83;;;10.60;99.90;;;;;;5061261;28;20180;-50
2023/01/06 00:32:01;;;;;;;1.70;1.20;;;10.50;99.90;;;;;;5061239;28;20202;-48
2023/01/06 00:34:27;;;;;;;4.43;1.20;;;10.50;99.90;;;;;;5060761;28;20176;-49
2023/01/06 00:36:53;;;;;;;2.50;1.27;;;10.50;99.90;;;;;;5060252;28;20668;-48
2023/01/06 00:39:19;;;;;;;3.77;1.20;;;10.50;99.90;;;;;;5059965;28;20184;-50
2023/01/06 00:42:02;;;;;;;3.27;1.23;;;10.50;99.90;;;;;;5060323;28;20334;-49
2023/01/06 00:44:38;;;;;;;2.10;1.23;;;10.40;99.90;;;;;;5060220;28;20164;-49
2023/01/06 00:47:06;;;;;;;2.93;1.30;;;10.40;99.90;;;;;;5060190;28;20186;-48
2023/01/06 00:49:32;;;;;;;2.57;1.20;;;10.40;99.90;;;;;;5059944;28;20179;-49
2023/01/06 00:51:58;;;;;;;3.27;1.43;;;10.30;99.90;;;;;;5059024;28;20204;-48
2023/01/06 00:54:23;;;;;;;4.20;1.30;;;10.30;99.90;;;;;;5059493;28;20176;-48
2023/01/06 00:56:51;;;;;;;2.43;1.27;;;10.30;99.90;;;;;;5058723;28;20184;-48
2023/01/06 00:59:22;;;;;;;9.47;1.63;;;10.40;99.90;;;;;;5058871;28;20184;-48
2023/01/06 01:01:50;;;;;;;3.43;1.50;;;10.40;99.90;;;;;;5058262;28;20204;-49
2023/01/06 01:04:16;;;;;;;3.20;1.83;;;10.30;99.90;;;;;;5057924;28;20259;-51
2023/01/06 01:06:43;;;;;;;6.33;1.60;;;10.30;99.90;;;;;;5058724;28;20263;-49
2023/01/06 01:09:12;;;;;;;3.00;1.50;;;10.30;99.90;;;;;;5058191;28;20207;-51
2023/01/06 01:14:22;;;;;;;4.37;1.40;;;10.30;99.90;;;;;;5057764;28;20171;-48
2023/01/06 01:16:47;;;;;;;5.57;1.40;;;10.30;99.90;;;;;;5058515;28;20261;-49
2023/01/06 01:19:14;;;;;;;9.90;1.87;;;10.30;99.90;;;;;;5040771;28;20295;-49
2023/01/06 01:21:40;;;;;;;7.23;1.30;;;10.30;99.90;;;;;;5058041;28;20567;-49
2023/01/06 01:24:06;;;;;;;3.67;1.70;;;10.30;99.90;;;;;;5058012;28;20191;-47
2023/01/06 01:26:31;;;;;;;4.93;1.47;;;10.30;99.90;;;;;;5057943;28;20190;-49
2023/01/06 01:28:57;;;;;;;5.50;1.40;;;10.30;99.90;;;;;;5058160;28;20206;-49
2023/01/06 01:31:22;;;;;;;3.20;1.67;;;10.30;99.90;;;;;;5056796;28;20203;-49
2023/01/06 01:33:48;;;;;;;3.93;1.67;;;10.30;99.90;;;;;;5057780;28;20187;-50
2023/01/06 01:36:16;;;;;;;6.70;1.40;;;10.30;99.90;;;;;;5057730;28;20199;-49
2023/01/06 01:38:41;;;;;;;5.50;1.60;;;10.20;99.90;;;;;;5058472;28;20191;-48
2023/01/06 01:41:12;;;;;;;3.03;1.40;;;10.20;99.90;;;;;;5057488;28;20203;-50
2023/01/06 01:43:50;;;;;;;2.93;1.50;;;10.20;99.90;;;;;;5057989;28;20723;-49
2023/01/06 01:46:23;;;;;;;4.83;2.20;;;10.20;99.90;;;;;;5057096;28;20179;-50
2023/01/06 01:48:51;;;;;;;3.10;1.37;;;10.20;99.90;;;;;;5056605;28;20572;-49
2023/01/06 01:51:23;;;;;;;4.40;1.13;;;10.30;99.90;;;;;;5056613;28;20291;-50
2023/01/06 01:53:54;;;;;;;6.40;1.47;;;10.20;99.90;;;;;;5056960;28;20186;-50
2023/01/06 01:56:25;;;;;;;3.37;1.20;;;10.30;99.90;;;;;;5056704;28;20220;-50
2023/01/06 01:59:03;;;;;;;3.97;1.43;;;10.30;99.90;;;;;;5056421;28;20172;-51
2023/01/06 02:01:30;;;;;;;6.33;1.40;;;10.30;99.90;;;;;;5056036;28;20207;-51
2023/01/06 02:03:56;;;;;;;5.57;1.37;;;10.30;99.90;;;;;;5055580;28;20183;-47
2023/01/06 02:06:24;;;;;;;3.37;1.50;;;10.30;99.90;;;;;;5055044;28;20207;-47
2023/01/06 02:09:03;;;;;;;5.43;1.43;;;10.30;99.90;;;;;;5054812;28;20212;-46
2023/01/06 02:11:32;;;;;;;8.73;1.10;;;10.30;99.90;;;;;;5054826;28;20206;-47
2023/01/06 02:14:16;;;;;;;7.73;1.27;;;10.30;99.90;;;;;;5054779;28;20191;-44
2023/01/06 02:17:03;;;;;;;3.33;1.00;;;10.30;99.90;;;;;;5054858;28;20247;-47
2023/01/06 02:19:47;;;;;;;2.63;1.00;;;10.40;99.90;;;;;;5054545;28;20573;-46
2023/01/06 02:22:34;;;;;;;2.80;0.80;;;10.40;99.90;;;;;;5054445;28;20212;-45
2023/01/06 02:25:24;;;;;;;4.37;1.00;;;10.40;99.90;;;;;;5054644;28;20257;-45
2023/01/06 02:28:17;;;;;;;7.13;1.07;;;10.50;99.90;;;;;;5054588;28;20203;-44
2023/01/06 02:31:29;;;;;;;5.47;1.10;;;10.50;99.90;;;;;;5054485;28;20160;-42
2023/01/06 02:33:58;;;;;;;6.00;1.00;;;10.60;99.90;;;;;;5023075;28;20200;-45
2023/01/06 02:36:48;;;;;;;4.07;1.10;;;10.60;99.90;;;;;;5054456;28;20190;-47
2023/01/06 02:39:32;;;;;;;4.53;1.37;;;10.60;99.90;;;;;;5054434;28;20172;-47
2023/01/06 02:42:33;;;;;;;8.70;1.50;;;10.50;99.90;;;;;;5054289;28;20492;-47
2023/01/06 02:45:10;;;;;;;5.57;1.30;;;10.50;99.90;;;;;;5054578;28;20174;-46
2023/01/06 02:47:36;;;;;;;3.30;1.40;;;10.40;99.90;;;;;;5054283;28;20206;-48
2023/01/06 02:50:14;;;;;;;3.10;1.53;;;10.40;99.90;;;;;;5054155;28;20271;-46
2023/01/06 02:52:50;;;;;;;5.53;1.23;;;10.40;99.90;;;;;;5053793;28;20195;-46
2023/01/06 02:55:35;;;;;;;3.47;1.50;;;10.40;99.90;;;;;;5054193;28;20168;-44
2023/01/06 02:58:09;;;;;;;6.80;1.87;;;10.30;99.90;;;;;;5053703;28;20330;-45
2023/01/06 03:01:00;;;;;;;3.63;1.40;;;10.30;99.90;;;;;;5054170;28;20168;-46
2023/01/06 03:03:29;;;;;;;6.17;1.13;;;10.30;99.90;;;;;;5040293;28;20210;-47
2023/01/06 03:06:00;;;;;;;6.53;1.20;;;10.30;99.90;;;;;;5053551;28;20255;-45
2023/01/06 03:08:29;;;;;;;3.00;1.40;;;10.20;99.90;;;;;;5053931;28;20314;-44
2023/01/06 03:10:56;;;;;;;3.60;1.10;;;10.20;99.90;;;;;;5053473;28;20514;-46
2023/01/06 03:13:31;;;;;;;3.70;1.37;;;10.30;99.90;;;;;;5053954;28;20172;-46
2023/01/06 03:15:56;;;;;;;3.73;1.13;;;10.30;99.90;;;;;;5053949;28;20198;-47
2023/01/06 03:18:22;;;;;;;4.93;1.40;;;10.30;99.90;;;;;;5053741;28;20225;-46
2023/01/06 03:20:50;;;;;;;5.23;1.40;;;10.30;99.90;;;;;;5053771;28;20222;-44
2023/01/06 03:23:16;;;;;;;7.90;1.40;;;10.20;99.90;;;;;;5053170;28;20211;-45
2023/01/06 03:25:42;;;;;;;4.07;1.63;;;10.20;99.90;;;;;;5053266;28;20187;-45
2023/01/06 03:28:07;;;;;;;5.87;1.70;;;10.30;99.90;;;;;;5053805;28;20222;-46
2023/01/06 03:30:44;;;;;;;3.00;1.40;;;10.30;99.90;;;;;;5053488;28;20190;-45
2023/01/06 03:33:44;;;;;;;1.30;0.80;;;10.30;99.90;;;;;;5053180;28;20192;-47
2023/01/06 03:36:17;;;;;;;6.00;1.33;;;10.30;99.90;;;;;;5053381;28;20508;-45
2023/01/06 03:38:52;;;;;;;7.00;1.47;;;10.30;99.90;;;;;;5053345;28;20168;-47
2023/01/06 03:44:55;;;;;;;2.50;0.90;;;10.30;99.90;;;;;;5053474;28;20170;-47
2023/01/06 03:47:30;;;;;;;5.77;1.20;;;10.30;99.90;;;;;;5053272;28;20667;-45
2023/01/06 03:50:05;;;;;;;4.10;1.20;;;10.30;99.90;;;;;;5053463;28;20198;-45
2023/01/06 03:52:40;;;;;;;5.33;1.30;;;10.30;99.90;;;;;;5052976;28;20666;-46
2023/01/06 03:55:13;;;;;;;1.87;1.00;;;10.30;99.90;;;;;;5059577;28;20222;-46
2023/01/06 03:57:44;;;;;;;7.10;1.43;;;10.30;99.90;;;;;;5059946;28;20172;-47
2023/01/06 04:00:21;;;;;;;2.50;1.03;;;10.40;99.90;;;;;;5059758;28;20198;-47
2023/01/06 04:02:47;;;;;;;2.30;0.70;;;10.40;99.90;;;;;;5059918;28;20321;-45
2023/01/06 04:05:16;;;;;;;2.10;1.00;;;10.40;99.90;;;;;;5059544;28;20667;-45
2023/01/06 04:07:43;;;;;;;5.10;1.00;;;10.40;99.90;;;;;;5059744;28;20211;-48
2023/01/06 04:10:11;;;;;;;4.00;1.40;;;10.40;99.90;;;;;;5059583;28;20192;-47
2023/01/06 04:12:39;;;;;;;1.70;0.90;;;10.40;99.90;;;;;;5059654;28;20212;-47
2023/01/06 04:15:10;;;;;;;5.17;0.87;;;10.40;99.90;;;;;;5059773;28;20184;-48
2023/01/06 04:17:38;;;;;;;6.80;1.07;;;10.40;99.90;;;;;;5059897;28;20168;-46
2023/01/06 04:20:05;;;;;;;3.33;0.97;;;10.40;99.90;;;;;;5059512;28;20206;-48
2023/01/06 04:22:31;;;;;;;3.27;1.07;;;10.30;99.90;;;;;;5059201;28;20221;-48
2023/01/06 04:24:56;;;;;;;4.60;1.10;;;10.30;99.90;;;;;;5059545;28;20171;-48
2023/01/06 04:27:22;;;;;;;2.57;1.03;;;10.30;99.90;;;;;;5059808;28;20204;-47
2023/01/06 04:29:47;;;;;;;3.73;1.00;;;10.30;99.90;;;;;;5059501;28;20246;-48
2023/01/06 04:32:13;;;;;;;5.27;0.90;;;10.30;99.90;;;;;;5059327;28;20199;-46
2023/01/06 04:34:39;;;;;;;4.17;0.90;;;10.20;99.90;;;;;;5059528;28;20184;-47
2023/01/06 04:37:04;;;;;;;9.37;1.40;;;10.20;99.90;;;;;;5059356;28;20186;-47
2023/01/06 04:39:30;;;;;;;2.97;1.53;;;10.20;99.90;;;;;;5059264;28;20176;-48
2023/01/06 04:41:55;;;;;;;3.13;0.80;;;10.20;99.90;;;;;;5059372;28;20274;-47
2023/01/06 04:44:21;;;;;;;1.63;0.87;;;10.20;99.90;;;;;;5059476;28;20623;-53
2023/01/06 04:46:47;;;;;;;2.60;1.10;;;10.20;99.90;;;;;;5059474;28;20172;-47
2023/01/06 04:49:13;;;;;;;4.00;0.90;;;10.20;99.90;;;;;;5059500;28;20243;-47
2023/01/06 04:51:39;;;;;;;1.83;1.13;;;10.20;99.90;;;;;;5059792;28;20226;-49
2023/01/06 04:54:05;;;;;;;5.10;1.30;;;10.20;99.90;;;;;;5059987;28;20176;-49
2023/01/06 04:56:30;;;;;;;2.30;0.90;;;10.20;99.90;;;;;;5060208;28;20176;-49
2023/01/06 04:58:57;;;;;;;2.47;0.80;;;10.20;99.90;;;;;;5059241;28;20572;-51
2023/01/06 05:01:23;;;;;;;4.87;0.90;;;10.20;99.90;;;;;;5059876;28;20196;-50
2023/01/06 05:03:49;;;;;;;1.33;0.70;;;10.20;99.90;;;;;;5059698;28;20211;-48
2023/01/06 05:06:16;;;;;;;1.17;0.87;;;10.20;99.90;;;;;;5055622;28;20176;-48
2023/01/06 05:08:42;;;;;;;4.10;1.10;;;10.20;99.90;;;;;;5056422;28;20226;-50
2023/01/06 05:11:20;;;;;;;3.10;0.67;;;10.20;99.90;;;;;;5056363;28;20199;-49
2023/01/06 05:13:46;;;;;;;3.17;0.90;;;10.20;99.90;;;;;;5056095;28;20608;-50
2023/01/06 05:16:17;;;;;;;1.77;0.73;;;10.20;99.90;;;;;;5055918;28;20172;-49
2023/01/06 05:18:43;;;;;;;1.13;0.90;;;10.10;99.90;;;;;;5056043;28;20231;-49
2023/01/06 05:21:09;;;;;;;3.23;1.20;;;10.20;99.90;;;;;;5055509;28;20607;-51
2023/01/06 05:23:36;;;;;;;3.53;1.03;;;10.20;99.90;;;;;;5055588;28;20198;-49
2023/01/06 05:26:02;;;;;;;2.20;1.00;;;10.20;99.90;;;;;;5055866;28;20655;-50
2023/01/06 05:28:28;;;;;;;1.50;1.00;;;10.20;99.90;;;;;;5055441;28;20206;-50
2023/01/06 05:31:04;;;;;;;1.33;0.80;;;10.20;99.90;;;;;;5055685;28;20632;-51
2023/01/06 05:33:33;;;;;;;2.53;1.00;;;10.20;99.90;;;;;;5055699;28;20156;-51
2023/01/06 05:36:08;;;;;;;0.83;0.73;;;10.20;99.90;;;;;;5055661;28;20180;-49
2023/01/06 05:38:34;;;;;;;3.70;0.93;;;10.20;99.90;;;;;;5055697;28;20190;-50
2023/01/06 05:41:00;;;;;;;4.70;0.90;;;10.20;99.90;;;;;;5037973;28;20549;-51
2023/01/06 05:43:27;;;;;;;3.87;1.23;;;10.20;99.90;;;;;;5055299;28;20219;-50
2023/01/06 05:45:54;;;;;;;1.90;0.77;;;10.20;99.90;;;;;;5055501;28;20690;-49
2023/01/06 05:48:22;;;;;;;1.83;0.93;;;10.20;99.90;;;;;;5055183;28;20250;-49
2023/01/06 05:50:47;;;;;;;3.40;1.07;;;10.20;99.90;;;;;;5055806;28;20179;-49
2023/01/06 05:53:13;;;;;;;3.17;0.97;;;10.10;99.90;;;;;;5055171;28;20243;-51
2023/01/06 05:55:39;;;;;;;7.77;1.00;;;10.10;99.90;;;;;;5055288;28;20173;-50
2023/01/06 05:58:04;;;;;;;3.57;0.87;;;10.10;99.90;;;;;;5055026;28;20218;-51
2023/01/06 06:00:30;;;;;;;2.77;0.80;;;10.20;99.90;;;;;;5055212;28;20184;-50
2023/01/06 06:02:55;;;;;;;3.03;0.93;;;10.20;99.90;;;;;;5054775;28;20212;-50
2023/01/06 06:05:21;;;;;;;2.33;1.00;;;10.20;99.90;;;;;;5055154;28;20174;-51
2023/01/06 06:07:55;;;;;;;1.27;0.80;;;10.20;99.90;;;;;;5054667;28;20541;-50
2023/01/06 06:10:21;;;;;;;3.37;1.00;;;10.20;99.90;;;;;;5054778;28;20157;-50
2023/01/06 06:12:46;;;;;;;1.97;0.70;;;10.20;99.90;;;;;;5055047;28;20227;-50
2023/01/06 06:15:12;;;;;;;2.90;0.73;;;10.20;99.90;;;;;;5054602;28;20215;-50
2023/01/06 06:17:38;;;;;;;2.43;0.70;;;10.20;99.90;;;;;;5054206;28;20191;-52
2023/01/06 06:20:04;;;;;;;2.10;0.70;;;10.20;99.90;;;;;;5054630;28;20270;-49
2023/01/06 06:22:29;;;;;;;2.47;1.10;;;10.10;99.90;;;;;;5054441;28;20220;-50
2023/01/06 06:24:55;;;;;;;2.47;0.70;;;10.10;99.90;;;;;;5054742;28;20508;-51
2023/01/06 06:27:20;;;;;;;0.73;0.70;;;10.20;99.90;;;;;;5054324;28;20617;-50
2023/01/06 06:29:46;;;;;;;4.00;1.13;;;10.20;99.90;;;;;;5054533;28;20647;-51
2023/01/06 06:32:11;;;;;;;2.77;0.80;;;10.20;99.90;;;;;;5054316;28;20556;-52
2023/01/06 06:34:37;;;;;;;0.70;0.70;;;10.20;99.90;;;;;;5054358;28;20190;-52
2023/01/06 06:37:02;;;;;;;0.93;0.60;;;10.10;99.90;;;;;;5054266;28;20175;-50
2023/01/06 06:39:28;;;;;;;2.23;0.87;;;10.20;99.90;;;;;;5054511;28;20255;-51
2023/01/06 06:41:53;;;;;;;1.87;0.77;;;10.10;99.90;;;;;;5054089;28;20261;-50
2023/01/06 06:44:19;;;;;;;2.27;0.97;;;10.10;99.90;;;;;;5054175;28;20522;-50
2023/01/06 06:46:44;;;;;;;3.30;0.90;;;10.10;99.90;;;;;;5054346;28;20219;-51
2023/01/06 06:49:10;;;;;;;1.53;0.97;;;10.10;99.90;;;;;;5053901;28;20206;-51
2023/01/06 06:51:36;;;;;;;2.30;1.07;;;10.10;99.90;;;;;;5053953;28;20749;-51
2023/01/06 06:54:02;;;;;;;1.60;0.87;;;10.10;99.90;;;;;;5054199;28;20178;-50
2023/01/06 06:56:28;;;;;;;4.00;1.00;;;10.10;99.90;;;;;;5054062;28;20298;-50
2023/01/06 06:58:53;;;;;;;2.20;0.73;;;10.10;99.90;;;;;;5053906;28;20186;-51
2023/01/06 07:01:19;;;;;;;2.70;0.90;;;10.10;99.90;;;;;;5053809;28;20204;-51
2023/01/06 07:03:45;;;;;;;0.80;0.70;;;10.10;99.90;;;;;;5054275;28;20180;-50
2023/01/06 07:06:18;;;;;;;1.73;0.90;;;10.10;99.90;;;;;;5054216;28;20183;-51
2023/01/06 07:08:45;;;;;;;1.23;0.60;;;10.10;99.90;;;;;;5053889;28;20201;-50
2023/01/06 07:11:11;;;;;;;0.57;0.57;;;10.10;99.90;;;;;;5053598;28;20293;-51
2023/01/06 07:13:37;;;;;;;1.80;0.80;;;10.20;99.90;;;;;;5053660;28;20207;-50
2023/01/06 07:16:04;;;;;;;2.37;0.80;;;10.20;99.90;;;;;;5053602;28;20184;-53
2023/01/06 07:18:30;;;;;;;1.53;0.80;;;10.20;99.90;;;;;;5053706;28;20183;-51
2023/01/06 07:20:55;;;;;;;3.90;0.80;;;10.20;99.90;;;;;;5053374;28;20544;-52
2023/01/06 07:23:22;;;;;;;1.03;0.60;;;10.20;99.90;;;;;;5053308;28;20195;-50
2023/01/06 07:25:52;;;;;;;0.67;0.63;;;10.40;99.90;;;;;;5053508;28;20172;-52
2023/01/06 07:28:17;;;;;;;1.03;0.60;;;10.20;99.90;;;;;;5052659;28;20206;-50
2023/01/06 07:30:43;;;;;;;0.70;0.63;;;10.20;99.90;;;;;;5053534;28;20187;-52
2023/01/06 07:33:09;;;;;;;2.13;0.80;;;10.20;99.90;;;;;;5053483;28;20192;-51
2023/01/06 07:35:34;;;;;;;1.20;0.63;;;10.20;99.90;;;;;;5053609;28;20223;-51
2023/01/06 07:38:04;;;;;;;1.17;0.60;;;10.20;99.90;;;;;;5053204;28;20598;-52
2023/01/06 07:40:30;;;;;;;1.03;0.50;;;10.30;99.90;;;;;;5053315;28;20651;-51
2023/01/06 07:42:55;;;;;;;0.90;0.50;;;10.20;99.90;;;;;;5054425;28;20270;-50
2023/01/06 07:45:21;;;;;;;2.10;0.63;;;10.30;99.90;;;;;;5053500;28;20184;-52
2023/01/06 07:47:47;;;;;;;0.50;0.50;;;10.30;99.90;;;;;;5053324;28;20564;-47
2023/01/06 07:50:12;;;;;;;1.50;0.63;;;10.30;99.90;;;;;;5053142;28;20183;-47
2023/01/06 07:52:38;;;;;;;0.60;0.60;;;10.30;99.90;;;;;;5053005;28;20663;-46
2023/01/06 07:55:04;;;;;;;2.27;0.80;;;10.30;99.90;;;;;;5049700;22;20262;-50
2023/01/06 07:57:29;;;;;;;0.50;0.50;;;10.30;99.90;;;;;;5053341;28;20198;-50
2023/01/06 07:59:55;;;;;;;5.87;0.77;;;10.30;99.90;;;;;;5053244;28;20183;-50
2023/01/06 08:02:22;;;;;;;1.17;0.60;;;10.30;99.90;;;;;;5053192;28;20214;-50
2023/01/06 08:04:48;;;;;;;2.53;0.60;;;10.30;99.90;;;;;;5052994;28;20207;-49
2023/01/06 08:07:15;;;;;;;0.50;0.40;;;10.30;99.90;;;;;;5052982;28;20259;-51
2023/01/06 08:09:40;;;;;;;0.67;0.60;;;10.30;99.90;;;;;;5053196;28;20172;-51
2023/01/06 08:12:06;;;;;;;3.40;0.57;;;10.30;99.90;;;;;;5053017;28;20203;-50
2023/01/06 08:14:32;;;;;;;0.60;0.50;;;10.30;99.90;;;;;;5053122;28;20179;-50
2023/01/06 08:16:57;;;;;;;1.63;0.70;;;10.40;99.90;;;;;;5053029;28;20184;-49
2023/01/06 08:19:23;;;;;;;0.60;0.60;;;10.40;99.90;;;;;;5052844;28;20242;-50
2023/01/06 08:21:48;;;;;;;2.30;0.80;;;10.40;99.90;;;;;;5052752;28;20208;-50
2023/01/06 08:24:14;;;;;;;0.73;0.60;;;10.40;99.90;;;;;;5053401;28;20394;-51
2023/01/06 08:26:40;;;;;;;2.33;0.80;;;10.40;99.90;;;;;;5052715;28;20682;-50
2023/01/06 08:29:06;;;;;;;0.50;0.40;;;10.40;99.90;;;;;;5052924;28;20239;-49
2023/01/06 08:31:31;;;;;;;0.53;0.40;;;10.40;99.90;;;;;;5052701;28;20198;-50
2023/01/06 08:33:57;;;;;;;1.17;0.50;;;10.40;99.90;;;;;;5052993;28;20186;-51
2023/01/06 08:36:23;;;;;;;0.50;0.50;;;10.40;99.90;;;;;;5052865;28;20180;-50
2023/01/06 08:38:49;;;;;;;1.83;0.60;;;10.30;99.90;;;;;;5053246;28;20199;-50
2023/01/06 08:41:15;;;;;;;2.67;0.70;;;10.30;99.90;;;;;;5056210;28;20208;-49
2023/01/06 08:43:43;;;;;;;0.77;0.60;;;10.30;99.90;;;;;;5056457;28;20235;-52
2023/01/06 08:46:11;;;;;;;0.87;0.50;;;10.30;99.90;;;;;;5056601;28;20549;-52
2023/01/06 08:48:37;;;;;;;1.97;0.70;;;10.30;99.90;;;;;;5056251;28;20200;-52
2023/01/06 08:51:05;;;;;;;0.63;0.60;;;10.30;99.90;;;;;;5056467;28;20223;-50
2023/01/06 08:53:32;;;;;;;2.03;0.70;;;10.40;99.90;;;;;;5056690;28;20192;-51
2023/01/06 08:55:58;;;;;;;3.10;0.50;;;10.40;99.90;;;;;;5056227;28;20199;-49
2023/01/06 08:58:23;;;;;;;0.67;0.50;;;10.40;99.90;;;;;;5055901;28;20712;-51
2023/01/06 09:00:49;;;;;;;2.83;0.63;;;10.40;99.90;;;;;;5056163;28;20188;-50
2023/01/06 09:03:14;;;;;;;0.90;0.50;;;10.40;99.90;;;;;;5055977;28;20191;-51
2023/01/06 09:05:40;;;;;;;0.83;0.60;;;10.30;99.90;;;;;;5055982;28;20188;-49
2023/01/06 09:08:06;;;;;;;0.70;0.53;;;10.30;99.90;;;;;;5056196;28;20203;-49
2023/01/06 09:10:31;;;;;;;4.50;0.47;;;10.30;99.90;;;;;;5056124;28;20182;-50
2023/01/06 09:12:57;;;;;;;0.67;0.50;;;10.30;99.90;;;;;;5038211;28;20212;-50
2023/01/06 09:15:23;;;;;;;0.47;0.40;;;10.30;99.90;;;;;;5056131;28;20183;-51
2023/01/06 09:17:48;;;;;;;0.57;0.50;;;10.30;99.90;;;;;;5038178;28;20545;-47
2023/01/06 09:20:14;;;;;;;1.00;0.40;;;10.30;99.90;;;;;;5055993;28;20183;-46
2023/01/06 09:22:39;;;;;;;1.20;0.60;;;10.30;99.90;;;;;;5055712;28;20212;-45
2023/01/06 09:25:05;;;;;;;0.50;0.50;;;10.30;99.90;;;;;;5055937;28;20180;-45
2023/01/06 09:27:31;;;;;;;1.77;0.60;;;10.30;99.90;;;;;;5055517;28;20214;-45
2023/01/06 09:29:56;;;;;;;1.87;0.50;;;10.30;99.90;;;;;;5055803;28;20263;-46
2023/01/06 09:32:22;;;;;;;0.50;0.50;;;10.20;99.90;;;;;;5055699;28;20689;-46
2023/01/06 09:34:48;;;;;;;0.97;0.47;;;10.20;99.90;;;;;;5055741;28;20679;-45
2023/01/06 09:37:14;;;;;;;0.60;0.60;;;10.20;99.90;;;;;;5055465;28;20173;-45
2023/01/06 09:39:40;;;;;;;1.10;0.60;;;10.20;99.90;;;;;;5055385;28;20230;-45
2023/01/06 09:42:26;;;;;;;0.47;0.47;;;10.20;99.90;;;;;;5055387;28;20660;-45
2023/01/06 09:45:05;;;;;;;2.50;0.50;;;10.20;99.90;;;;;;5055616;28;20164;-45
2023/01/06 09:47:36;;;;;;;1.03;0.50;;;10.20;99.90;;;;;;5037217;28;20229;-45
2023/01/06 09:50:12;;;;;;;2.87;0.53;;;10.20;99.90;;;;;;5055804;28;20237;-46
2023/01/06 09:52:51;;;;;;;0.40;0.40;;;10.30;99.90;;;;;;5054457;28;20246;-45
2023/01/06 09:55:41;;;;;;;0.63;0.47;;;10.30;99.90;;;;;;5054910;28;20226;-46
2023/01/06 09:58:20;;;;;;;1.10;0.50;;;10.40;99.90;;;;;;5055380;28;20187;-44
2023/01/06 10:00:48;;;;;;;0.77;0.73;;;10.40;99.90;;;;;;5055206;28;20190;-46
2023/01/06 10:03:19;;;;;;;0.70;0.67;;;10.40;99.90;;;;;;5055140;28;20527;-46
2023/01/06 10:05:59;;;;;;;1.70;0.60;;;10.50;99.90;;;;;;5055238;28;20188;-46
2023/01/06 10:08:40;;;;;;;0.40;0.40;;;10.50;99.90;;;;;;5055058;28;20214;-47
2023/01/06 10:11:13;;;;;;;0.77;0.70;;;10.50;99.90;;;;;;5055242;28;20262;-45
2023/01/06 10:14:00;;;;;;;1.40;0.60;;;10.50;99.90;;;;;;5055062;28;20600;-47
2023/01/06 10:16:45;;;;;;;0.70;0.70;;;10.60;99.90;;;;;;5054904;28;20180;-45
2023/01/06 10:20:17;;;;;;;0.50;0.50;;;10.60;99.90;;;;;;5055286;28;20263;-45
2023/01/06 10:22:50;;;;;;;1.13;0.60;;;10.60;99.90;;;;;;4969668;28;20226;-46
2023/01/06 10:25:28;;;;;;;2.00;0.70;;;10.70;99.90;;;;;;5044629;28;20203;-45
2023/01/06 10:28:18;;;;;;;2.27;0.80;;;10.70;99.90;;;;;;5054913;28;20648;-45
2023/01/06 10:30:46;;;;;;;1.30;0.60;;;10.80;99.90;;;;;;5054991;28;20164;-46
2023/01/06 10:33:22;;;;;;;2.20;0.60;;;10.80;99.90;;;;;;5036462;28;20586;-47
2023/01/06 10:35:48;;;;;;;0.63;0.60;;;10.80;99.90;;;;;;5054439;28;20179;-45
2023/01/06 10:38:15;;;;;;;3.97;0.63;;;10.80;99.90;;;;;;5054509;28;20184;-45
2023/01/06 10:40:41;;;;;;;1.13;0.90;;;10.80;99.90;;;;;;5054119;28;20181;-45
2023/01/06 10:43:12;;;;;;;3.00;0.70;;;10.90;99.90;;;;;;5054278;28;20196;-48
2023/01/06 10:45:42;;;;;;;1.27;0.73;;;10.90;99.90;;;;;;5054116;28;20702;-45
2023/01/06 10:48:16;;;;;;;2.77;1.00;;;10.90;99.90;;;;;;5054192;28;20659;-45
2023/01/06 10:50:42;;;;;;;1.13;0.70;;;10.90;99.90;;;;;;5054257;28;20647;-45
2023/01/06 10:53:13;;;;;;;1.83;0.90;;;11.00;99.90;;;;;;5053859;28;20235;-46
2023/01/06 10:55:46;;;;;;;1.00;0.90;;;11.10;99.90;;;;;;5053906;28;20225;-47
2023/01/06 10:58:19;;;;;;;1.23;0.80;;;11.10;99.90;;;;;;5053981;28;20180;-45
2023/01/06 11:01:15;;;;;;;4.00;1.03;;;11.20;99.90;;;;;;5053765;28;20180;-44
2023/01/06 11:03:43;;;;;;;1.40;1.10;;;11.20;99.90;;;;;;5053125;28;20177;-47
2023/01/06 11:06:23;;;;;;;1.20;1.00;;;11.20;99.90;;;;;;5053659;28;20212;-45
2023/01/06 11:08:49;;;;;;;1.00;0.90;;;11.20;99.90;;;;;;5053602;28;20294;-44
2023/01/06 11:11:17;;;;;;;1.10;1.00;;;11.20;99.90;;;;;;5054163;28;20707;-44
2023/01/06 11:13:56;;;;;;;1.10;0.90;;;11.30;99.90;;;;;;5053797;28;20188;-43
2023/01/06 11:16:34;;;;;;;2.23;1.20;;;11.20;99.90;;;;;;5053557;28;20646;-43
2023/01/06 11:19:03;;;;;;;3.67;1.50;;;11.20;99.90;;;;;;5053576;28;20174;-44
2023/01/06 11:21:43;;;;;;;1.50;1.20;;;11.30;99.90;;;;;;5053573;28;20281;-44
2023/01/06 11:24:24;;;;;;;0.97;0.90;;;11.30;99.90;;;;;;5035592;28;20187;-45
2023/01/06 11:27:15;;;;;;;3.13;0.90;;;11.30;99.90;;;;;;5053706;28;20165;-45
2023/01/06 11:29:41;;;;;;;3.17;1.17;;;11.30;99.90;;;;;;5042663;28;20230;-52
2023/01/06 11:32:19;;;;;;;4.30;1.20;;;11.20;99.90;;;;;;5053253;28;20196;-50
2023/01/06 11:34:57;;;;;;;1.70;1.10;;;11.20;99.90;;;;;;5053609;28;20226;-49
2023/01/06 11:37:33;;;;;;;0.73;0.67;;;11.20;99.90;;;;;;5035618;28;20186;-49
2023/01/06 11:40:00;;;;;;;0.80;0.80;;;11.10;99.90;;;;;;5053650;28;20258;-50
2023/01/06 11:42:26;;;;;;;1.40;0.87;;;11.00;99.90;;;;;;5053445;28;20193;-49
2023/01/06 11:44:52;;;;;;;2.23;1.03;;;11.00;99.90;;;;;;5053571;28;20690;-49
2023/01/06 11:47:25;;;;;;;1.37;0.93;;;11.00;99.90;;;;;;5035168;28;20226;-49
2023/01/06 11:50:00;;;;;;;0.90;0.90;;;11.00;99.90;;;;;;5053645;28;20167;-51
2023/01/06 11:52:31;;;;;;;1.10;1.00;;;11.00;99.90;;;;;;5053016;28;20643;-50
2023/01/06 11:55:05;;;;;;;1.17;0.90;;;11.00;99.90;;;;;;5053299;28;20156;-49
2023/01/06 11:58:14;;;;;;;4.00;1.47;;;11.00;99.90;;;;;;5054073;28;20605;-48
2023/01/06 12:00:52;;;;;;;1.70;1.27;;;11.00;99.90;;;;;;5036851;28;20168;-50
2023/01/06 12:03:40;;;;;;;1.70;1.10;;;11.00;99.90;;;;;;5053558;28;20176;-48
2023/01/06 12:06:05;;;;;;;1.30;1.20;;;11.00;99.90;;;;;;5019314;28;20254;-48
2023/01/06 12:08:34;;;;;;;1.10;1.00;;;11.00;99.90;;;;;;5052895;28;20641;-48
2023/01/06 12:11:23;;;;;;;2.40;1.33;;;11.00;99.90;;;;;;5053527;28;20251;-49
2023/01/06 12:13:49;;;;;;;1.47;1.27;;;11.10;99.90;;;;;;5014021;28;20663;-48
2023/01/06 12:16:36;;;;;;;3.13;1.80;;;11.10;99.90;;;;;;5056549;28;20180;-48
2023/01/06 12:19:15;;;;;;;1.63;0.93;;;11.10;99.90;;;;;;5057255;28;20676;-50
2023/01/06 12:21:41;;;;;;;1.20;1.10;;;11.10;99.90;;;;;;5057034;28;20203;-49
2023/01/06 12:24:12;;;;;;;2.47;0.90;;;11.10;99.90;;;;;;5056828;28;20184;-47
2023/01/06 12:26:39;;;;;;;1.43;1.00;;;11.10;99.90;;;;;;5057020;28;20620;-48
2023/01/06 12:29:06;;;;;;;2.03;1.10;;;11.10;99.90;;;;;;5056580;28;20195;-50
2023/01/06 12:32:13;;;;;;;0.80;0.80;;;11.10;99.90;;;;;;5056910;28;20266;-47
2023/01/06 12:34:46;;;;;;;1.00;0.90;;;11.10;99.90;;;;;;5056859;28;20164;-50
2023/01/06 12:37:31;;;;;;;1.33;1.00;;;11.10;99.90;;;;;;5056609;28;20149;-50
2023/01/06 12:40:34;;;;;;;1.93;1.13;;;11.10;99.90;;;;;;5056797;28;20206;-50
2023/01/06 12:43:17;;;;;;;1.73;1.20;;;11.10;99.90;;;;;;5056629;28;20613;-49
2023/01/06 12:46:10;;;;;;;1.97;0.97;;;11.20;99.90;;;;;;5056442;28;20176;-47
2023/01/06 12:48:44;;;;;;;1.37;1.27;;;11.10;99.90;;;;;;5056528;28;20200;-49
2023/01/06 12:51:45;;;;;;;1.90;1.30;;;11.20;99.90;;;;;;5056482;28;20544;-48
2023/01/06 12:54:35;;;;;;;2.37;0.93;;;11.20;99.90;;;;;;4975754;28;20179;-50
2023/01/06 12:57:09;;;;;;;1.97;1.10;;;11.20;99.90;;;;;;5052870;28;20234;-49
2023/01/06 12:59:50;;;;;;;1.67;1.10;;;11.30;99.90;;;;;;5056059;28;20180;-48
2023/01/06 13:02:32;;;;;;;1.63;1.03;;;11.30;99.90;;;;;;5055984;28;20253;-49
2023/01/06 13:05:00;;;;;;;1.47;1.33;;;11.30;99.90;;;;;;5056433;28;20164;-47
2023/01/06 13:07:40;;;;;;;1.93;1.20;;;11.30;99.90;;;;;;5055883;28;20200;-48
2023/01/06 13:10:26;;;;;;;2.50;1.20;;;11.30;99.90;;;;;;5056456;28;20196;-49
2023/01/06 13:13:10;;;;;;;0.90;0.90;;;11.20;99.90;;;;;;5056328;28;20192;-49